»·PEaware :: SKW1517 KSEA-KBOI

SKW1517 :: KSEA-KBOI

FLIGHT INFORMATION

Flight Status: Arrived
Operator:
SkyWest Airlines
More flights by this operator :: More flights under this callsign
Pilot: Chris O. (30060)
Aircraft: CANADAIR CL-600 CRJ-200
(CRJ2)
More flights by this aircraft type
Origin: KSEA Seattle-Tacoma Intl
United States
Destination: KBOI Boise Air Terminal/Gowen
United States
More flights between these airports :: More routes between these airports
Route: SUMMA2 SUMMA J54 BKE DEVLE KYAAN3
File this flight plan on PilotEdge
Remarks: RMK / SIMBRIEF
Altitude:
(Current/Filed)
29,000ft
Speed:
(Current/Filed)
430kts
Departed: 08-Jul-22 03:44 PM
Arrived: 08-Jul-22 04:43 PM
Distance/Time
Traveled:
346nm/0:59
Distance/Time
To Go:
Arrived

Flight Plot

Page will automatically refresh every two minutes.

Flight plan parsing failed; only flown route is shown


Map Options




Map Legend


Flown Route
Filed Route
Departure Airport
Arrival Airport
Navaid (VOR, NDB)
Fix

Horizontal Profiles

Position Reports

Time Latitude Longitude Heading Altitude Ground
Speed
08-Jul-22 15:25 47.444386 -122.304004 64 387ft 0kts
08-Jul-22 15:26 47.444386 -122.304004 64 387ft 0kts
08-Jul-22 15:27 47.444386 -122.304004 64 387ft 0kts
08-Jul-22 15:28 47.444386 -122.304004 64 387ft 0kts
08-Jul-22 15:29 47.444386 -122.304004 64 387ft 0kts
08-Jul-22 15:30 47.444386 -122.304004 64 387ft 0kts
08-Jul-22 15:31 47.444386 -122.304004 64 387ft 0kts
08-Jul-22 15:32 47.444386 -122.304004 64 387ft 0kts
08-Jul-22 15:33 47.444386 -122.304004 64 387ft 0kts
08-Jul-22 15:34 47.444386 -122.304004 64 387ft 0kts
08-Jul-22 15:35 47.443988 -122.304966 52 387ft 3kts
08-Jul-22 15:36 47.443328 -122.306190 50 383ft 3kts
08-Jul-22 15:37 47.443263 -122.306306 50 383ft 0kts
08-Jul-22 15:38 47.447823 -122.306316 0 398ft 25kts
08-Jul-22 15:39 47.455676 -122.306265 2 433ft 30kts
08-Jul-22 15:40 47.463650 -122.306387 307 414ft 0kts
08-Jul-22 15:41 47.463650 -122.306387 307 414ft 0kts
08-Jul-22 15:41 47.463650 -122.306387 307 414ft 0kts
08-Jul-22 15:43 47.463650 -122.306387 307 414ft 0kts
08-Jul-22 15:44 47.461522 -122.307699 180 423ft 52kts
08-Jul-22 15:45 47.418172 -122.310149 185 2456ft 193kts
08-Jul-22 15:45 47.372373 -122.316677 188 5641ft 217kts
08-Jul-22 15:46 47.305257 -122.314000 175 9520ft 262kts
08-Jul-22 15:48 47.219738 -122.275702 163 14149ft 326kts
08-Jul-22 15:49 47.131053 -122.244839 164 15187ft 329kts
08-Jul-22 15:50 47.040279 -122.199110 164 18759ft 385kts
08-Jul-22 15:50 46.957111 -122.157433 166 22035ft 366kts
08-Jul-22 15:51 46.860204 -122.109145 167 26038ft 391kts
08-Jul-22 15:52 46.754047 -122.056204 168 29166ft 408kts
08-Jul-22 15:54 46.626408 -121.992664 167 29197ft 428kts
08-Jul-22 15:54 46.540684 -121.912465 138 29197ft 463kts
08-Jul-22 15:55 46.475247 -121.750784 124 29190ft 460kts
08-Jul-22 15:56 46.416872 -121.589450 124 29162ft 446kts
08-Jul-22 15:57 46.360477 -121.432130 124 29095ft 435kts
08-Jul-22 15:58 46.305551 -121.277837 125 29084ft 429kts
08-Jul-22 15:59 46.251505 -121.125190 124 29084ft 426kts
08-Jul-22 16:00 46.198473 -120.972592 124 29081ft 424kts
08-Jul-22 16:01 46.145921 -120.819609 124 29086ft 432kts
08-Jul-22 16:02 46.091192 -120.662040 124 29083ft 448kts
08-Jul-22 16:03 46.034158 -120.499665 124 29084ft 462kts
08-Jul-22 16:04 45.974826 -120.332330 124 29078ft 474kts
08-Jul-22 16:05 45.914617 -120.163170 124 29074ft 478kts
08-Jul-22 16:06 45.853952 -119.993058 124 29087ft 482kts
08-Jul-22 16:07 45.792557 -119.821298 124 29088ft 487kts
08-Jul-22 16:08 45.730478 -119.647907 124 29088ft 492kts
08-Jul-22 16:09 45.667964 -119.473469 124 29088ft 493kts
08-Jul-22 16:10 45.605780 -119.299536 124 29080ft 490kts
08-Jul-22 16:11 45.544394 -119.127096 124 29095ft 486kts
08-Jul-22 16:12 45.479059 -118.960430 129 29099ft 478kts
08-Jul-22 16:13 45.409598 -118.800347 129 29100ft 476kts
08-Jul-22 16:14 45.340351 -118.640238 128 29100ft 474kts
08-Jul-22 16:15 45.272533 -118.482843 128 28592ft 454kts
08-Jul-22 16:16 45.209711 -118.335475 129 27260ft 422kts
08-Jul-22 16:17 45.151183 -118.197533 129 25895ft 397kts
08-Jul-22 16:18 45.090239 -118.073927 143 24553ft 367kts
08-Jul-22 16:19 45.017563 -117.973016 143 23371ft 371kts
08-Jul-22 16:20 44.941246 -117.868717 146 22279ft 391kts
08-Jul-22 16:21 44.857863 -117.764465 145 21217ft 410kts
08-Jul-22 16:22 44.767890 -117.662063 148 20171ft 422kts
08-Jul-22 16:23 44.673733 -117.561197 148 19107ft 424kts
08-Jul-22 16:24 44.577187 -117.473492 153 18024ft 407kts
08-Jul-22 16:25 44.481005 -117.394680 157 16938ft 394kts
08-Jul-22 16:26 44.383805 -117.327444 158 15985ft 382kts
08-Jul-22 16:27 44.292584 -117.264197 158 15936ft 352kts
08-Jul-22 16:28 44.214552 -117.188154 143 15267ft 348kts
08-Jul-22 16:29 44.139904 -117.098525 143 12590ft 360kts
08-Jul-22 16:30 44.063432 -117.014686 148 9996ft 339kts
08-Jul-22 16:31 43.992071 -116.948766 146 9338ft 288kts
08-Jul-22 16:32 43.943310 -116.867277 128 8549ft 264kts
08-Jul-22 16:33 43.898924 -116.785505 128 7954ft 274kts
08-Jul-22 16:34 43.851223 -116.699909 128 7945ft 289kts
08-Jul-22 16:35 43.797238 -116.617144 137 7434ft 280kts
08-Jul-22 16:36 43.739114 -116.548718 142 6327ft 272kts
08-Jul-22 16:37 43.678997 -116.486288 143 5233ft 262kts
08-Jul-22 16:38 43.633180 -116.425923 119 4916ft 208kts
08-Jul-22 16:39 43.608021 -116.356756 111 4476ft 201kts
08-Jul-22 16:40 43.585675 -116.288891 113 3700ft 169kts
08-Jul-22 16:41 43.566863 -116.233316 110 2840ft 143kts
08-Jul-22 16:42 43.560173 -116.213098 84 2856ft 23kts
08-Jul-22 16:43 43.562512 -116.211219 21 2860ft 6kts

Navigation Log

Ident Type
Flight plan parsing failed, navigation log unavailable